East Orleans, MA (02643)

5:08 PM EDT on August 22, 2017 (GMT -0400)
Countryside Orleans | | Change Station

Elev 95 ft 41.79 °N, 69.94 °W | Updated 3 minutes ago

Overcast
Overcast
75.1 °F
Feels Like 74 °F
N
9.0
Wind Variable Wind from ENE
Gusts 19.0 mph

Today
High -- | Low -- °F
--% Chance of Precip.
Yesterday
High -- | Low -- °F
Precip. -- in
Pressure 29.91 in
Visibility 8.0 miles
Clouds Overcast 400 ft
Heat Index 74 °F
Dew Point 72 °F
Humidity 91%
Rainfall 0.00 in
Snow Depth Not available.
5:55 AM 7:28 PM
New Moon, 2% visible
METAR KCQX 222052Z AUTO 21012G20KT 8SM OVC004 23/23 A2990 RMK AO2 SLP127 T02330228 58025
Pressure 29.91 in
Visibility 8.0 miles
Clouds Overcast 400 ft
Heat Index 74 °F
Dew Point 72 °F
Humidity 91%
Rainfall 0.00 in
Snow Depth Not available.
5:55 AM 7:28 PM
New Moon, 2% visible
METAR KCQX 222052Z AUTO 21012G20KT 8SM OVC004 23/23 A2990 RMK AO2 SLP127 T02330228 58025

Get Severe Weather Alerts

Thanks for signing up!

Be on the lookout for a verification email in your inbox.

You'll start receiving the daily forecast at 6 AM.

×

10-Day Weather Forecast

Almanac

Astronomy

Aug. 22, 2017 Rise Set
Actual Time
Civil Twilight
Nautical Twilight
Astronomical Twilight
Moon
Length of Visible Light
Length of Day
Tomorrow will be .
, % of the Moon is Illuminated

Today's Extremes

State Highs State Lows

Community

WunderPhotos

Category 6

Welcome to Category 6. This is the collective home for Weather Underground's featured writeups by Dr. Jeff Masters (right), Bob Henson (left), Chris Burt, and other regular contributors.

Nearby

Air Quality

  Air Quality AQ Index Pollutant
Not available.

Snow Depth

Station Depth Elevation

Earthquake Activity

City Distance Mag. Time & Date
Minimum magnitude displayed is 2.5.

Coastal Water Temperatures

Place Temperature

Stations

Nearby Weather Stations

Station Location Temp. Windchill Dew Point Humidity Wind Precip. Elev Updated Type
                   

Watches & Warnings

There are currently no watches in effect.